Time;durP1;ratioP1;P1;durP2;ratioP2;P2;SDS_P1;SDS_P2;PMS_P1;PMS_P2;Temp;Humidity;BMP_temperature;BMP_pressure;BME280_temperature;BME280_humidity;BME280_pressure;Samples;Min_cycle;Max_cycle;Signal;HPM_P1;HPM_P2
2020/12/17 00:01:28;;;;;;;14.23;12.48;;;7.30;99.90;;;;;;5067603;28;20218;-59
2020/12/17 00:03:53;;;;;;;13.20;11.93;;;7.50;99.90;;;;;;5069064;28;20263;-59
2020/12/17 00:06:19;;;;;;;13.53;12.13;;;7.50;99.90;;;;;;5068019;28;20570;-59
2020/12/17 00:08:44;;;;;;;12.20;10.90;;;7.30;99.90;;;;;;5067837;28;20185;-58
2020/12/17 00:11:10;;;;;;;14.60;11.53;;;7.40;99.90;;;;;;5067523;28;20182;-59
2020/12/17 00:13:36;;;;;;;14.50;11.90;;;7.40;99.90;;;;;;5067973;28;20204;-58
2020/12/17 00:16:01;;;;;;;12.70;11.20;;;7.50;99.90;;;;;;5069480;28;20197;-59
2020/12/17 00:18:27;;;;;;;11.40;10.30;;;7.50;99.90;;;;;;5069015;28;20177;-59
2020/12/17 00:20:52;;;;;;;14.80;11.60;;;7.60;99.90;;;;;;5067712;28;20200;-59
2020/12/17 00:23:18;;;;;;;13.87;11.13;;;7.50;99.90;;;;;;5067740;28;20177;-59
2020/12/17 00:25:44;;;;;;;14.30;12.87;;;7.30;99.90;;;;;;5067215;28;20228;-59
2020/12/17 00:28:09;;;;;;;11.33;10.23;;;7.30;99.90;;;;;;5067294;28;20177;-59
2020/12/17 00:30:35;;;;;;;12.70;11.40;;;7.30;99.90;;;;;;5068904;28;20180;-58
2020/12/17 00:33:00;;;;;;;13.97;11.43;;;7.20;99.90;;;;;;5072768;28;20183;-59
2020/12/17 00:35:26;;;;;;;12.30;11.00;;;7.30;99.90;;;;;;5071370;28;20225;-59
2020/12/17 00:37:52;;;;;;;12.13;10.83;;;7.30;99.90;;;;;;5070928;28;20189;-58
2020/12/17 00:40:17;;;;;;;11.53;10.33;;;7.30;99.90;;;;;;5070967;28;20714;-59
2020/12/17 00:42:44;;;;;;;11.70;10.53;;;7.30;99.90;;;;;;5072369;28;20677;-59
2020/12/17 00:45:11;;;;;;;12.63;10.90;;;7.50;99.90;;;;;;5072297;28;20585;-58
2020/12/17 00:47:36;;;;;;;12.75;10.02;;;7.40;99.90;;;;;;5072279;28;20278;-59
2020/12/17 00:50:05;;;;;;;11.87;10.40;;;7.70;99.90;;;;;;5070805;28;20173;-58
2020/12/17 00:52:34;;;;;;;11.52;10.30;;;7.50;99.90;;;;;;5070905;28;20709;-59
2020/12/17 00:54:59;;;;;;;12.13;10.32;;;7.60;99.90;;;;;;5070475;28;20183;-59
2020/12/17 00:57:28;;;;;;;11.30;10.10;;;7.50;99.90;;;;;;5070994;28;20200;-59
2020/12/17 00:59:54;;;;;;;11.77;10.45;;;7.60;99.90;;;;;;5070632;28;20225;-58
2020/12/17 01:02:20;;;;;;;10.20;9.20;;;7.50;99.90;;;;;;5070776;28;20204;-59
2020/12/17 01:04:46;;;;;;;11.45;10.25;;;7.50;99.90;;;;;;5071911;28;20544;-59
2020/12/17 01:07:12;;;;;;;13.23;9.85;;;7.50;99.90;;;;;;5070761;28;20208;-58
2020/12/17 01:09:37;;;;;;;11.47;10.27;;;7.40;99.90;;;;;;5070242;28;20288;-59
2020/12/17 01:12:07;;;;;;;10.87;9.77;;;7.40;99.90;;;;;;5070647;28;20192;-59
2020/12/17 01:14:34;;;;;;;12.95;10.40;;;7.20;99.90;;;;;;5070312;28;20189;-58
2020/12/17 01:17:01;;;;;;;11.10;9.98;;;7.50;99.90;;;;;;5070641;28;20240;-59
2020/12/17 01:19:27;;;;;;;13.18;10.30;;;7.30;99.90;;;;;;5070475;28;20733;-59
2020/12/17 01:21:53;;;;;;;10.60;9.50;;;7.20;99.90;;;;;;5070605;28;20291;-59
2020/12/17 01:24:19;;;;;;;11.10;9.90;;;7.00;99.90;;;;;;5070549;28;20268;-58
2020/12/17 01:26:44;;;;;;;12.10;10.23;;;7.10;99.90;;;;;;5070603;28;20290;-59
2020/12/17 01:29:10;;;;;;;10.93;9.40;;;7.10;99.90;;;;;;5067927;28;20194;-59
2020/12/17 01:31:36;;;;;;;11.77;10.00;;;7.40;99.90;;;;;;5070524;28;20177;-59
2020/12/17 01:34:01;;;;;;;11.03;9.93;;;7.10;99.90;;;;;;5067194;28;20177;-59
2020/12/17 01:36:27;;;;;;;11.27;9.77;;;7.20;99.90;;;;;;5069486;28;20571;-58
2020/12/17 01:38:52;;;;;;;12.80;10.87;;;7.10;99.90;;;;;;5069982;28;20188;-59
2020/12/17 01:41:18;;;;;;;11.07;9.87;;;7.10;99.90;;;;;;5069868;28;20200;-59
2020/12/17 01:43:46;;;;;;;12.20;10.07;;;7.10;99.90;;;;;;5070069;28;20631;-59
2020/12/17 01:46:13;;;;;;;10.73;9.70;;;7.20;99.90;;;;;;5069858;28;20200;-59
2020/12/17 01:48:39;;;;;;;11.10;9.75;;;7.00;99.90;;;;;;5056624;28;20280;-59
2020/12/17 01:51:06;;;;;;;10.70;9.70;;;7.20;99.90;;;;;;5069770;28;20550;-59
2020/12/17 01:53:41;;;;;;;11.68;10.00;;;6.50;99.90;;;;;;5069667;28;20195;-58
2020/12/17 01:56:24;;;;;;;10.35;9.20;;;7.30;99.90;;;;;;5069727;28;20738;-59
2020/12/17 01:59:11;;;;;;;10.10;9.07;;;6.40;99.90;;;;;;5069693;28;20176;-59
2020/12/17 02:01:43;;;;;;;11.07;9.98;;;7.20;99.90;;;;;;5069689;28;20230;-60
2020/12/17 02:04:10;;;;;;;11.82;10.63;;;7.00;99.90;;;;;;5061438;28;20189;-58
2020/12/17 02:06:35;;;;;;;12.40;9.25;;;7.10;99.90;;;;;;5072571;28;20711;-59
2020/12/17 02:09:03;;;;;;;11.67;10.47;;;6.90;99.90;;;;;;5066425;28;20199;-59
2020/12/17 02:11:29;;;;;;;10.95;9.77;;;6.80;99.90;;;;;;5069274;28;20700;-59
2020/12/17 02:13:54;;;;;;;9.30;8.40;;;7.00;99.90;;;;;;5069509;28;20300;-59
2020/12/17 02:16:20;;;;;;;10.53;8.67;;;6.80;99.90;;;;;;5068925;28;20212;-59
2020/12/17 02:18:46;;;;;;;10.13;9.13;;;7.00;99.90;;;;;;5069491;28;20192;-58
2020/12/17 02:21:13;;;;;;;10.57;9.47;;;6.80;99.90;;;;;;5069260;28;20208;-59
2020/12/17 02:23:39;;;;;;;11.55;10.35;;;6.70;99.90;;;;;;5069168;28;20275;-59
2020/12/17 02:26:05;;;;;;;10.43;9.37;;;6.70;99.90;;;;;;5068774;28;20310;-59
2020/12/17 02:28:32;;;;;;;10.70;9.68;;;6.90;99.90;;;;;;5066701;28;20478;-59
2020/12/17 02:30:57;;;;;;;10.45;9.35;;;6.70;99.90;;;;;;5068824;28;20574;-59
2020/12/17 02:33:23;;;;;;;10.70;9.60;;;6.60;99.90;;;;;;5068832;28;20196;-59
2020/12/17 02:35:49;;;;;;;11.10;10.00;;;6.40;99.90;;;;;;5070140;28;20587;-59
2020/12/17 02:38:14;;;;;;;11.50;9.83;;;6.70;99.90;;;;;;5069156;28;20180;-58
2020/12/17 02:40:40;;;;;;;10.37;9.37;;;6.70;99.90;;;;;;5068824;28;20185;-59
2020/12/17 02:43:08;;;;;;;13.93;9.73;;;6.80;99.90;;;;;;5070279;28;20179;-58
2020/12/17 02:45:34;;;;;;;12.57;10.20;;;6.70;99.90;;;;;;5068616;28;20207;-59
2020/12/17 02:47:59;;;;;;;12.10;9.90;;;6.40;99.90;;;;;;5068908;28;20265;-58
2020/12/17 02:50:25;;;;;;;11.37;10.17;;;6.50;99.90;;;;;;5068597;28;20440;-59
2020/12/17 02:52:51;;;;;;;10.90;9.77;;;6.60;99.90;;;;;;5068054;28;20275;-58
2020/12/17 02:55:16;;;;;;;9.77;8.77;;;6.60;99.90;;;;;;5069985;28;20226;-58
2020/12/17 02:57:42;;;;;;;10.30;9.30;;;6.50;99.90;;;;;;5068723;28;20186;-59
2020/12/17 03:00:10;;;;;;;11.00;9.87;;;6.50;99.90;;;;;;5067715;28;20252;-59
2020/12/17 03:02:36;;;;;;;10.57;9.55;;;6.70;99.90;;;;;;5069925;28;20661;-58
2020/12/17 03:05:02;;;;;;;10.00;9.00;;;6.60;99.90;;;;;;5068465;28;20213;-59
2020/12/17 03:07:28;;;;;;;10.18;9.18;;;6.40;99.90;;;;;;5068844;28;20235;-58
2020/12/17 03:09:53;;;;;;;10.57;9.50;;;6.30;99.90;;;;;;5069897;28;20266;-59
2020/12/17 03:12:19;;;;;;;10.63;9.53;;;6.20;99.90;;;;;;5068681;28;20183;-58
2020/12/17 03:14:45;;;;;;;10.50;9.43;;;6.40;99.90;;;;;;5068090;28;20192;-59
2020/12/17 03:17:10;;;;;;;10.73;9.63;;;6.40;99.90;;;;;;5068462;28;20290;-59
2020/12/17 03:19:36;;;;;;;11.17;9.17;;;6.00;99.90;;;;;;5068454;28;20180;-59
2020/12/17 03:22:01;;;;;;;10.80;9.70;;;6.20;99.90;;;;;;5068264;28;20210;-58
2020/12/17 03:24:27;;;;;;;9.90;8.90;;;6.10;99.90;;;;;;5068302;28;20201;-59
2020/12/17 03:26:53;;;;;;;11.07;9.97;;;6.20;99.90;;;;;;5067971;28;20349;-58
2020/12/17 03:29:18;;;;;;;9.77;8.77;;;6.30;99.90;;;;;;5065585;28;20187;-59
2020/12/17 03:31:44;;;;;;;10.90;9.77;;;6.00;99.90;;;;;;5068130;28;20190;-59
2020/12/17 03:34:09;;;;;;;10.20;8.67;;;6.10;99.90;;;;;;5068044;28;20221;-59
2020/12/17 03:36:35;;;;;;;10.53;9.43;;;6.20;99.90;;;;;;5064530;28;20200;-60
2020/12/17 03:39:00;;;;;;;10.00;9.00;;;6.20;99.90;;;;;;5065326;28;20202;-59
2020/12/17 03:41:26;;;;;;;10.27;9.27;;;6.30;99.90;;;;;;5067885;28;20222;-60
2020/12/17 03:43:52;;;;;;;9.10;8.20;;;6.30;99.90;;;;;;5067955;28;20190;-58
2020/12/17 03:46:17;;;;;;;10.30;9.30;;;6.40;99.90;;;;;;5067978;28;20208;-59
2020/12/17 03:48:43;;;;;;;11.73;9.43;;;6.20;99.90;;;;;;5067764;28;20184;-58
2020/12/17 03:51:08;;;;;;;9.87;8.97;;;5.70;99.90;;;;;;5067794;28;20601;-59
2020/12/17 03:53:34;;;;;;;9.10;8.23;;;5.80;99.90;;;;;;5068174;28;20654;-59
2020/12/17 03:55:59;;;;;;;13.50;9.10;;;6.30;99.90;;;;;;5067736;28;20207;-58
2020/12/17 03:58:25;;;;;;;9.07;8.17;;;6.40;99.90;;;;;;5067476;28;20189;-59
2020/12/17 04:00:51;;;;;;;9.57;8.57;;;6.20;99.90;;;;;;5069106;28;20215;-60
2020/12/17 04:03:16;;;;;;;8.57;7.67;;;6.30;99.90;;;;;;5064490;28;20186;-59
2020/12/17 04:05:42;;;;;;;9.80;8.80;;;6.40;99.90;;;;;;5070762;28;20267;-59
2020/12/17 04:08:07;;;;;;;8.90;8.07;;;6.20;99.90;;;;;;5071847;28;20179;-58
2020/12/17 04:10:33;;;;;;;10.40;8.23;;;6.30;99.90;;;;;;5071726;28;20598;-59
2020/12/17 04:12:59;;;;;;;10.63;7.70;;;6.20;99.90;;;;;;5071406;28;20191;-59
2020/12/17 04:15:24;;;;;;;9.63;8.30;;;6.30;99.90;;;;;;5071786;28;20219;-58
2020/12/17 04:17:50;;;;;;;9.77;8.63;;;5.90;99.90;;;;;;5071586;28;20182;-59
2020/12/17 04:20:15;;;;;;;9.67;8.40;;;6.20;99.90;;;;;;5071497;28;20183;-58
2020/12/17 04:22:41;;;;;;;11.07;8.63;;;6.30;99.90;;;;;;5071163;28;20205;-59
2020/12/17 04:25:07;;;;;;;9.33;8.43;;;6.30;99.90;;;;;;5071375;28;20201;-58
2020/12/17 04:27:34;;;;;;;11.10;8.70;;;6.30;99.90;;;;;;5070996;28;20644;-59
2020/12/17 04:30:00;;;;;;;11.60;9.70;;;6.00;99.90;;;;;;5072876;28;20183;-58
2020/12/17 04:32:25;;;;;;;11.50;9.20;;;6.10;99.90;;;;;;5071414;28;20554;-59
2020/12/17 04:34:51;;;;;;;11.13;9.20;;;6.10;99.90;;;;;;5071535;28;20197;-59
2020/12/17 04:37:16;;;;;;;10.90;9.80;;;5.90;99.90;;;;;;5071075;28;20644;-58
2020/12/17 04:39:42;;;;;;;10.30;9.30;;;6.30;99.90;;;;;;5071124;28;20183;-59
2020/12/17 04:42:08;;;;;;;11.80;10.40;;;6.10;99.90;;;;;;5058188;28;20201;-59
2020/12/17 04:44:34;;;;;;;10.70;9.60;;;6.00;99.90;;;;;;5071651;28;20226;-58
2020/12/17 04:47:05;;;;;;;10.50;9.07;;;6.40;99.90;;;;;;5071481;28;20238;-58
2020/12/17 04:49:36;;;;;;;12.48;10.30;;;6.00;99.90;;;;;;5071397;28;20434;-59
2020/12/17 04:52:02;;;;;;;11.95;9.68;;;6.40;99.90;;;;;;5070933;28;20187;-59
2020/12/17 04:54:28;;;;;;;11.40;10.15;;;6.40;99.90;;;;;;5070963;28;20235;-59
2020/12/17 04:57:05;;;;;;;11.60;10.40;;;6.30;99.90;;;;;;5070752;28;20573;-59
2020/12/17 04:59:41;;;;;;;11.00;9.18;;;6.30;99.90;;;;;;5067570;28;20246;-58
2020/12/17 05:02:08;;;;;;;11.77;10.07;;;6.10;99.90;;;;;;5086694;28;20703;-59
2020/12/17 05:04:39;;;;;;;11.73;10.00;;;6.30;99.90;;;;;;5068214;28;20181;-58
2020/12/17 05:07:06;;;;;;;11.70;10.50;;;6.40;99.90;;;;;;5070370;28;20328;-58
2020/12/17 05:09:33;;;;;;;12.32;9.88;;;6.10;99.90;;;;;;5070543;28;20195;-59
2020/12/17 05:11:58;;;;;;;12.18;10.30;;;6.20;99.90;;;;;;5070388;28;20191;-58
2020/12/17 05:14:25;;;;;;;10.00;9.00;;;6.30;99.90;;;;;;5070476;28;20193;-59
2020/12/17 05:16:51;;;;;;;11.93;10.45;;;6.40;99.90;;;;;;5070116;28;20503;-59
2020/12/17 05:19:16;;;;;;;12.03;10.73;;;6.60;99.90;;;;;;5070452;28;20198;-59
2020/12/17 05:21:42;;;;;;;11.10;10.00;;;6.20;99.90;;;;;;5070517;28;20230;-59
2020/12/17 05:24:08;;;;;;;10.80;9.70;;;6.30;99.90;;;;;;5070357;28;20215;-59
2020/12/17 05:26:35;;;;;;;13.05;11.35;;;6.10;99.90;;;;;;5069982;28;20468;-59
2020/12/17 05:29:01;;;;;;;11.60;10.43;;;6.10;99.90;;;;;;5069666;28;20210;-59
2020/12/17 05:31:27;;;;;;;13.40;9.90;;;6.20;99.90;;;;;;5069963;28;20223;-59
2020/12/17 05:33:53;;;;;;;11.38;10.27;;;6.20;99.90;;;;;;5069989;28;20723;-59
2020/12/17 05:36:25;;;;;;;11.63;10.43;;;6.20;99.90;;;;;;5068553;28;20230;-58
2020/12/17 05:38:54;;;;;;;11.93;10.73;;;6.10;99.90;;;;;;5071290;28;20575;-59
2020/12/17 05:41:20;;;;;;;10.88;9.40;;;6.00;99.90;;;;;;5069829;28;20222;-59
2020/12/17 05:43:46;;;;;;;11.60;10.30;;;5.70;99.90;;;;;;5070188;28;20184;-59
2020/12/17 05:46:11;;;;;;;12.40;10.17;;;6.20;99.90;;;;;;5069915;28;20207;-58
2020/12/17 05:48:37;;;;;;;12.77;10.87;;;6.10;99.90;;;;;;5069627;28;20437;-58
2020/12/17 05:51:02;;;;;;;11.37;9.63;;;6.10;99.90;;;;;;5070042;28;20193;-57
2020/12/17 05:53:38;;;;;;;11.07;9.90;;;6.30;99.90;;;;;;5069829;28;20199;-58
2020/12/17 05:56:06;;;;;;;12.15;9.50;;;6.00;99.90;;;;;;5069535;28;20215;-59
2020/12/17 05:58:42;;;;;;;10.70;9.20;;;6.40;99.90;;;;;;5069718;28;20710;-60
2020/12/17 06:01:08;;;;;;;10.40;9.40;;;6.20;99.90;;;;;;5069581;28;20436;-58
2020/12/17 06:03:34;;;;;;;11.47;9.60;;;6.30;99.90;;;;;;5069031;28;20174;-58
2020/12/17 06:06:04;;;;;;;10.87;9.73;;;6.40;99.90;;;;;;5069341;28;20460;-58
2020/12/17 06:08:35;;;;;;;11.52;9.25;;;6.40;99.90;;;;;;5070459;28;20187;-58
2020/12/17 06:11:05;;;;;;;12.88;9.68;;;6.20;99.90;;;;;;5069558;28;20183;-57
2020/12/17 06:13:42;;;;;;;11.43;10.23;;;6.20;99.90;;;;;;5069073;28;20280;-58
2020/12/17 06:16:09;;;;;;;12.15;10.25;;;6.10;99.90;;;;;;5069216;28;20560;-57
2020/12/17 06:18:36;;;;;;;12.13;9.40;;;6.30;99.90;;;;;;5068918;28;20193;-58
2020/12/17 06:21:04;;;;;;;11.75;10.18;;;6.10;99.90;;;;;;5070301;28;20206;-57
2020/12/17 06:23:32;;;;;;;10.20;9.05;;;6.30;99.90;;;;;;5069087;28;20181;-58
2020/12/17 06:25:58;;;;;;;10.57;9.43;;;6.30;99.90;;;;;;5068878;28;20238;-59
2020/12/17 06:28:46;;;;;;;10.90;9.53;;;6.50;99.90;;;;;;5068971;28;20274;-58
2020/12/17 06:31:15;;;;;;;10.13;8.95;;;6.50;99.90;;;;;;5068896;28;20207;-58
2020/12/17 06:33:42;;;;;;;9.85;8.50;;;6.30;99.90;;;;;;5068720;28;20196;-58
2020/12/17 06:36:42;;;;;;;9.43;8.50;;;6.60;99.90;;;;;;5055325;28;20287;-58
2020/12/17 06:39:07;;;;;;;10.45;8.63;;;6.40;99.90;;;;;;5014857;28;20211;-58
2020/12/17 06:41:33;;;;;;;9.80;8.73;;;6.30;99.90;;;;;;5068743;28;20207;-59
2020/12/17 06:44:00;;;;;;;9.73;8.65;;;6.40;99.90;;;;;;5068565;28;20791;-58
2020/12/17 06:46:36;;;;;;;9.65;8.65;;;6.50;99.90;;;;;;5068613;28;20215;-58
2020/12/17 06:49:07;;;;;;;10.93;9.52;;;6.40;99.90;;;;;;5068210;28;20210;-59
2020/12/17 06:51:40;;;;;;;8.73;7.75;;;6.30;99.90;;;;;;5068640;28;20188;-58
2020/12/17 06:54:29;;;;;;;11.00;9.18;;;6.30;99.90;;;;;;5068082;28;20226;-58
2020/12/17 06:57:16;;;;;;;9.25;8.40;;;6.30;99.90;;;;;;5068118;28;20216;-58
2020/12/17 07:00:05;;;;;;;11.18;8.93;;;6.50;99.90;;;;;;5064512;28;20218;-58
2020/12/17 07:02:40;;;;;;;9.48;8.48;;;6.40;99.90;;;;;;5059379;28;20214;-58
2020/12/17 07:05:05;;;;;;;13.65;7.82;;;6.50;99.90;;;;;;5068340;28;20521;-58
2020/12/17 07:07:44;;;;;;;8.63;7.57;;;6.40;99.90;;;;;;5069587;28;20180;-58
2020/12/17 07:10:31;;;;;;;10.20;7.40;;;6.30;99.90;;;;;;5067888;28;20503;-58
2020/12/17 07:12:57;;;;;;;8.20;7.40;;;6.40;99.90;;;;;;5067856;28;20181;-58
2020/12/17 07:15:37;;;;;;;7.78;6.97;;;6.50;99.90;;;;;;5068048;28;20261;-58
2020/12/17 07:18:24;;;;;;;8.40;7.47;;;6.40;99.90;;;;;;5067362;28;20188;-58
2020/12/17 07:21:04;;;;;;;8.43;6.93;;;6.60;99.90;;;;;;5068103;28;20179;-59
2020/12/17 07:23:38;;;;;;;7.93;7.10;;;6.80;99.90;;;;;;5068050;28;20216;-58
2020/12/17 07:26:14;;;;;;;7.03;6.13;;;6.60;99.90;;;;;;5067564;28;20793;-58
2020/12/17 07:28:40;;;;;;;8.45;6.72;;;6.70;99.90;;;;;;5066975;28;20178;-59
2020/12/17 07:31:07;;;;;;;7.82;6.25;;;6.90;99.90;;;;;;5068030;28;20613;-58
2020/12/17 07:33:38;;;;;;;7.65;6.35;;;7.10;99.90;;;;;;5067807;28;20190;-58
2020/12/17 07:36:08;;;;;;;6.72;5.65;;;6.90;99.90;;;;;;5067939;28;20215;-58
2020/12/17 07:38:34;;;;;;;7.72;5.72;;;7.10;99.90;;;;;;5067221;28;20179;-58
2020/12/17 07:41:00;;;;;;;11.53;5.93;;;7.00;99.90;;;;;;5067469;28;20283;-58
2020/12/17 07:43:40;;;;;;;11.27;8.43;;;7.00;99.90;;;;;;5067686;28;20435;-59
2020/12/17 07:46:08;;;;;;;7.43;6.13;;;7.00;99.90;;;;;;5066128;28;20216;-58
2020/12/17 07:48:47;;;;;;;5.47;4.97;;;6.70;99.90;;;;;;5056845;28;20233;-58
2020/12/17 07:51:13;;;;;;;5.60;5.00;;;7.10;99.90;;;;;;5068075;28;20198;-58
2020/12/17 07:53:40;;;;;;;6.57;4.95;;;7.30;99.90;;;;;;5067579;28;20230;-59
2020/12/17 07:56:08;;;;;;;6.15;5.55;;;7.00;99.90;;;;;;5067477;28;20295;-58
2020/12/17 07:58:38;;;;;;;4.38;3.78;;;6.90;99.90;;;;;;5067200;28;20684;-58
2020/12/17 08:01:05;;;;;;;4.63;4.15;;;7.20;99.90;;;;;;5067403;28;20204;-58
2020/12/17 08:03:46;;;;;;;7.53;5.40;;;7.40;99.90;;;;;;5063951;28;20639;-58
2020/12/17 08:06:17;;;;;;;4.28;3.88;;;7.30;99.90;;;;;;5061573;28;20265;-58
2020/12/17 08:08:43;;;;;;;10.48;4.05;;;7.40;99.90;;;;;;5068089;28;20259;-58
2020/12/17 08:11:10;;;;;;;4.30;3.90;;;7.40;99.90;;;;;;5067803;28;20654;-59
2020/12/17 08:13:36;;;;;;;4.68;4.28;;;7.50;99.90;;;;;;5067701;28;20177;-59
2020/12/17 08:16:05;;;;;;;3.92;3.63;;;7.90;99.90;;;;;;5067820;28;20669;-59
2020/12/17 08:18:35;;;;;;;4.85;4.18;;;7.80;99.90;;;;;;5067678;28;20181;-58
2020/12/17 08:21:12;;;;;;;4.70;4.07;;;7.80;99.90;;;;;;5067647;28;20219;-59
2020/12/17 08:23:44;;;;;;;4.80;4.40;;;7.80;99.90;;;;;;5067588;28;20606;-59
2020/12/17 08:26:12;;;;;;;3.95;3.55;;;7.70;99.90;;;;;;5067401;28;20223;-59
2020/12/17 08:28:40;;;;;;;4.32;3.92;;;7.70;99.90;;;;;;5055325;28;20178;-59
2020/12/17 08:31:16;;;;;;;4.60;3.80;;;7.90;99.90;;;;;;5067387;28;20194;-59
2020/12/17 08:33:47;;;;;;;4.68;3.70;;;7.70;99.90;;;;;;5067356;28;20230;-59
2020/12/17 08:36:15;;;;;;;4.80;4.35;;;8.10;99.90;;;;;;5066932;28;20200;-59
2020/12/17 08:38:51;;;;;;;5.40;4.50;;;8.00;99.90;;;;;;5067525;28;20232;-59
2020/12/17 08:41:19;;;;;;;4.47;4.07;;;7.70;99.90;;;;;;5066957;28;20208;-59
2020/12/17 08:43:48;;;;;;;5.30;4.18;;;8.10;99.90;;;;;;5067004;28;20189;-59
2020/12/17 08:46:15;;;;;;;4.47;4.07;;;8.00;99.90;;;;;;5066868;28;20208;-59
2020/12/17 08:48:43;;;;;;;4.55;3.70;;;7.90;99.90;;;;;;5067103;28;20181;-59
2020/12/17 08:51:15;;;;;;;5.25;3.92;;;7.90;99.90;;;;;;5067348;28;20184;-59
2020/12/17 08:53:42;;;;;;;4.60;3.88;;;8.00;99.90;;;;;;5070511;28;20243;-59
2020/12/17 08:56:12;;;;;;;5.90;5.30;;;8.10;99.90;;;;;;5070474;28;20231;-60
2020/12/17 08:58:53;;;;;;;5.90;4.45;;;8.30;99.90;;;;;;5070362;28;20556;-59
2020/12/17 09:01:38;;;;;;;5.55;4.00;;;8.20;99.90;;;;;;5070307;28;20299;-60
2020/12/17 09:04:08;;;;;;;7.22;4.20;;;8.30;99.90;;;;;;5066992;28;20184;-58
2020/12/17 09:06:37;;;;;;;5.07;4.45;;;8.40;99.90;;;;;;5066936;28;20205;-59
2020/12/17 09:09:11;;;;;;;5.25;4.75;;;8.60;99.90;;;;;;5069825;28;20736;-59
2020/12/17 09:11:39;;;;;;;5.32;4.82;;;8.90;99.90;;;;;;5069857;28;20271;-59
2020/12/17 09:14:09;;;;;;;5.53;4.30;;;8.80;99.90;;;;;;5069889;28;20266;-59
2020/12/17 09:16:39;;;;;;;5.10;4.30;;;8.60;99.90;;;;;;5069706;28;20201;-60
2020/12/17 09:19:09;;;;;;;4.85;3.65;;;8.80;99.90;;;;;;5053144;28;20193;-59
2020/12/17 09:21:56;;;;;;;4.30;3.95;;;8.70;99.90;;;;;;5069923;28;20694;-60
2020/12/17 09:24:46;;;;;;;4.40;4.00;;;8.70;99.90;;;;;;5069727;28;20201;-59
2020/12/17 09:27:17;;;;;;;5.47;4.55;;;8.70;99.90;;;;;;5069055;28;20201;-59
2020/12/17 09:29:57;;;;;;;6.72;5.15;;;8.80;99.90;;;;;;5069747;28;20323;-59
2020/12/17 09:32:23;;;;;;;5.72;4.90;;;8.80;99.90;;;;;;5069986;28;20185;-59
2020/12/17 09:34:48;;;;;;;6.73;4.83;;;8.80;99.90;;;;;;5069895;28;20251;-59
2020/12/17 09:37:14;;;;;;;6.90;5.10;;;8.70;99.90;;;;;;5069731;28;20578;-59
2020/12/17 09:39:47;;;;;;;6.53;5.07;;;9.00;99.90;;;;;;5069434;28;20193;-59
2020/12/17 09:42:17;;;;;;;5.00;4.50;;;8.70;99.90;;;;;;5069807;28;20295;-59
2020/12/17 09:44:43;;;;;;;4.60;4.20;;;8.60;99.90;;;;;;5069554;28;20239;-59
2020/12/17 09:47:09;;;;;;;5.35;4.85;;;8.60;99.90;;;;;;5069377;28;20225;-59
2020/12/17 09:49:37;;;;;;;6.85;4.97;;;8.70;99.90;;;;;;5069138;28;20272;-59
2020/12/17 09:52:11;;;;;;;7.25;4.45;;;8.60;99.90;;;;;;5070546;28;20181;-59
2020/12/17 09:54:43;;;;;;;7.05;4.82;;;8.60;99.90;;;;;;5069088;28;20655;-59
2020/12/17 09:57:14;;;;;;;6.47;4.60;;;8.70;99.90;;;;;;5068964;28;20344;-59
2020/12/17 09:59:42;;;;;;;4.90;4.50;;;8.70;99.90;;;;;;5065721;28;20190;-58
2020/12/17 10:02:10;;;;;;;5.60;4.47;;;9.40;99.90;;;;;;5066192;28;20267;-59
2020/12/17 10:04:37;;;;;;;5.43;4.10;;;9.70;99.90;;;;;;5070361;28;20432;-58
2020/12/17 10:07:02;;;;;;;4.32;3.92;;;10.20;99.90;;;;;;5068500;28;20735;-58
2020/12/17 10:09:28;;;;;;;4.40;4.00;;;10.50;99.90;;;;;;5068433;28;20276;-59
2020/12/17 10:11:56;;;;;;;5.17;4.67;;;10.60;99.90;;;;;;5068568;28;20196;-59
2020/12/17 10:14:22;;;;;;;6.25;4.40;;;10.60;99.90;;;;;;5068820;28;20435;-60
2020/12/17 10:16:49;;;;;;;5.88;4.32;;;10.70;99.90;;;;;;5068349;28;20239;-59
2020/12/17 10:19:18;;;;;;;4.40;4.00;;;10.80;99.90;;;;;;5068721;28;20231;-59
2020/12/17 10:21:46;;;;;;;5.75;4.63;;;10.60;99.90;;;;;;5068715;28;20725;-59
2020/12/17 10:24:12;;;;;;;3.83;3.53;;;10.80;99.90;;;;;;5068585;28;20194;-58
2020/12/17 10:26:37;;;;;;;6.53;4.33;;;10.60;99.90;;;;;;5068655;28;20681;-59
2020/12/17 10:29:03;;;;;;;4.10;3.67;;;11.10;99.90;;;;;;5068467;28;20252;-59
2020/12/17 10:31:29;;;;;;;4.40;4.00;;;10.60;99.90;;;;;;5068189;28;20721;-59
2020/12/17 10:33:56;;;;;;;4.63;4.20;;;11.20;99.90;;;;;;5068215;28;20205;-59
2020/12/17 10:36:22;;;;;;;3.53;3.22;;;11.30;99.90;;;;;;5069190;28;20458;-60
2020/12/17 10:38:48;;;;;;;4.25;3.85;;;11.20;99.90;;;;;;5058522;28;20366;-59
2020/12/17 10:41:16;;;;;;;5.63;3.90;;;11.30;99.90;;;;;;5068062;28;20671;-60
2020/12/17 10:43:42;;;;;;;4.22;3.83;;;11.60;99.90;;;;;;5068106;28;20183;-60
2020/12/17 10:46:08;;;;;;;4.43;4.00;;;11.80;99.90;;;;;;5068130;28;20247;-60
2020/12/17 10:48:33;;;;;;;3.90;3.50;;;11.80;99.50;;;;;;5067938;28;20179;-60
2020/12/17 10:50:59;;;;;;;5.30;4.80;;;11.80;99.40;;;;;;5067969;28;20318;-60
2020/12/17 10:53:24;;;;;;;6.50;4.27;;;12.60;99.40;;;;;;5063937;28;20184;-61
2020/12/17 10:55:50;;;;;;;3.93;3.50;;;13.30;98.00;;;;;;5058427;28;20223;-60
2020/12/17 10:58:16;;;;;;;4.30;3.80;;;13.40;96.80;;;;;;5067714;28;20184;-59
2020/12/17 11:00:41;;;;;;;3.47;3.17;;;13.20;96.80;;;;;;5067733;28;20539;-60
2020/12/17 11:03:07;;;;;;;4.57;3.73;;;13.20;96.90;;;;;;5068126;28;20469;-60
2020/12/17 11:05:37;;;;;;;5.60;3.90;;;13.00;97.20;;;;;;5067709;28;20214;-60
2020/12/17 11:08:03;;;;;;;4.05;3.60;;;12.80;97.50;;;;;;5069175;28;20192;-60
2020/12/17 11:10:30;;;;;;;3.65;3.35;;;12.90;97.90;;;;;;5067884;28;20188;-59
2020/12/17 11:12:55;;;;;;;9.40;3.90;;;12.90;97.40;;;;;;5067837;28;20218;-60
2020/12/17 11:15:21;;;;;;;3.50;3.20;;;12.80;97.40;;;;;;5067100;28;20207;-60
2020/12/17 11:17:47;;;;;;;4.10;3.80;;;12.70;97.60;;;;;;5067169;28;20429;-59
2020/12/17 11:20:13;;;;;;;3.37;3.07;;;12.50;97.80;;;;;;5067293;28;20198;-60
2020/12/17 11:22:39;;;;;;;3.60;3.30;;;12.60;97.90;;;;;;5067279;28;20348;-60
2020/12/17 11:25:05;;;;;;;4.00;3.60;;;12.70;98.20;;;;;;5067221;28;20208;-60
2020/12/17 11:27:31;;;;;;;4.15;3.55;;;12.10;98.00;;;;;;5067162;28;20183;-60
2020/12/17 11:29:57;;;;;;;3.60;3.30;;;12.50;98.40;;;;;;5067606;28;20188;-60
2020/12/17 11:32:23;;;;;;;5.70;3.42;;;12.30;98.70;;;;;;5067476;28;20672;-60
2020/12/17 11:34:52;;;;;;;4.80;3.27;;;12.50;98.60;;;;;;5067522;28;20222;-59
2020/12/17 11:37:19;;;;;;;6.15;3.75;;;12.50;98.60;;;;;;5067490;28;20213;-59
2020/12/17 11:39:44;;;;;;;4.10;3.60;;;12.30;98.60;;;;;;5067345;28;20210;-60
2020/12/17 11:42:10;;;;;;;4.63;3.20;;;12.10;98.60;;;;;;5067275;28;20607;-60
2020/12/17 11:44:36;;;;;;;6.03;4.07;;;12.50;98.80;;;;;;5067166;28;20214;-62
2020/12/17 11:47:01;;;;;;;5.67;3.30;;;12.20;98.80;;;;;;5067403;28;20293;-60
2020/12/17 11:49:27;;;;;;;4.80;4.33;;;12.50;98.90;;;;;;5067448;28;20590;-60
2020/12/17 11:51:53;;;;;;;3.90;3.60;;;12.40;99.10;;;;;;5067529;28;20186;-60
2020/12/17 11:54:19;;;;;;;4.93;4.27;;;12.10;98.90;;;;;;5067312;28;20186;-61
2020/12/17 11:56:49;;;;;;;4.93;4.00;;;12.20;98.70;;;;;;5067261;28;21201;-61
2020/12/17 11:59:16;;;;;;;5.55;4.53;;;12.60;98.70;;;;;;5066753;28;20198;-60
2020/12/17 12:01:42;;;;;;;5.38;4.38;;;12.50;98.80;;;;;;5066801;28;20198;-60
2020/12/17 12:04:09;;;;;;;5.95;4.30;;;12.80;98.80;;;;;;5063572;28;20228;-61
2020/12/17 12:06:35;;;;;;;5.70;4.53;;;12.80;98.70;;;;;;5064357;28;20266;-60
2020/12/17 12:09:01;;;;;;;6.07;4.30;;;12.60;98.30;;;;;;5067130;28;20642;-59
2020/12/17 12:11:26;;;;;;;5.80;5.30;;;12.60;98.50;;;;;;5067156;28;20626;-60
2020/12/17 12:13:53;;;;;;;10.47;7.83;;;12.70;98.30;;;;;;5067106;28;20191;-60
2020/12/17 12:16:19;;;;;;;7.85;6.40;;;12.90;98.40;;;;;;5066700;28;20578;-60
2020/12/17 12:18:44;;;;;;;5.50;4.57;;;12.80;98.50;;;;;;5067499;28;20189;-60
2020/12/17 12:21:13;;;;;;;7.10;4.80;;;12.80;98.50;;;;;;5067355;28;20533;-60
2020/12/17 12:23:42;;;;;;;4.45;4.05;;;12.70;98.80;;;;;;5067359;28;20178;-59
2020/12/17 12:26:08;;;;;;;4.07;3.67;;;12.50;98.80;;;;;;5067667;28;20894;-60
2020/12/17 12:28:34;;;;;;;4.28;3.55;;;12.80;98.90;;;;;;5067093;28;20192;-59
2020/12/17 12:31:02;;;;;;;3.50;3.20;;;12.90;98.60;;;;;;5070734;28;20180;-59
2020/12/17 12:33:28;;;;;;;3.97;3.50;;;13.00;98.70;;;;;;5070868;28;20480;-59
2020/12/17 12:35:54;;;;;;;4.25;3.85;;;12.50;98.90;;;;;;5070787;28;20207;-60
2020/12/17 12:38:23;;;;;;;4.30;3.90;;;12.70;99.40;;;;;;5070515;28;20198;-59
2020/12/17 12:40:49;;;;;;;4.00;3.53;;;12.80;99.10;;;;;;5072154;28;20199;-59
2020/12/17 12:43:14;;;;;;;3.83;3.50;;;12.80;98.70;;;;;;5070322;28;20215;-59
2020/12/17 12:45:40;;;;;;;6.27;5.00;;;13.20;98.70;;;;;;5072306;28;20208;-59
2020/12/17 12:48:06;;;;;;;4.70;4.40;;;12.90;98.30;;;;;;5070892;28;20187;-60
2020/12/17 12:50:31;;;;;;;6.77;6.07;;;12.90;98.50;;;;;;5070824;28;20598;-59
2020/12/17 12:52:57;;;;;;;6.97;6.10;;;12.70;98.70;;;;;;5070319;28;20193;-59